Lanes Prairie, Missouri
Current Conditions -  °F | °C
As of 11:53 PM on Wednesday 17 Dec 2014 (Local Time) from KVIH Reporting Station
Unknown Precip Unknown Precip  
Wind Chill: 32°   Ceiling: 5000
Heat Index: 32°   Visibility: 8mi
Dew Point: 27°   Wind: 0mph
Humidity: 82%   Direction: NA
Pressure: 30.23"   Gusts: NA
Location:  38.2601°N, 91.7526°W
Report Text: KVIH 180553Z AUTO 00000KT 8SM UP SCT045 OVC050 00/M03 A3023 RMK AO2 RAB0456E21UPB21SNB0459E09 SLP247 P0005 60005 I1000 I6000 T00001028 10011 20000 400111050 58003
Loading
Personal Weather Stations






























Interactive Weather Map New forecast layout! Learn more

10-Day Weather Forecast

Advertisements
Track Severe Weather on mobile